Time;durP1;ratioP1;P1;durP2;ratioP2;P2;SDS_P1;SDS_P2;PMS_P1;PMS_P2;Temp;Humidity;BMP_temperature;BMP_pressure;BME280_temperature;BME280_humidity;BME280_pressure;Samples;Min_cycle;Max_cycle;Signal;HPM_P1;HPM_P2
2022/03/03 00:03:47;;;;;;;12.73;9.38;;;;;;;1.73;64.62;96237.72;10268041;28;97872;-70
2022/03/03 00:08:52;;;;;;;15.70;9.98;;;;;;;1.71;64.87;96238.72;10275029;28;97844;-71
2022/03/03 00:13:55;;;;;;;18.67;10.90;;;;;;;1.74;64.71;96235.97;10264274;28;96995;-71
2022/03/03 00:18:58;;;;;;;16.38;9.88;;;;;;;1.70;64.61;96231.94;10273145;28;99019;-70
2022/03/03 00:24:02;;;;;;;14.45;9.88;;;;;;;1.67;64.57;96224.41;10276090;28;97761;-71
2022/03/03 00:29:06;;;;;;;18.13;10.63;;;;;;;1.71;64.35;96228.44;10271501;28;96792;-70
2022/03/03 00:34:09;;;;;;;16.70;10.23;;;;;;;1.71;64.50;96228.44;10273848;28;98584;-71
2022/03/03 00:39:13;;;;;;;15.77;9.77;;;;;;;1.72;63.76;96233.50;10276026;28;97531;-71
2022/03/03 00:44:16;;;;;;;15.32;10.30;;;;;;;1.81;64.17;96239.81;10279592;28;96879;-71
2022/03/03 00:49:19;;;;;;;15.95;9.90;;;;;;;1.56;65.40;96232.78;10274535;28;99542;-71
2022/03/03 00:54:24;;;;;;;15.48;9.43;;;;;;;1.50;65.64;96221.06;10272477;28;97794;-71
2022/03/03 00:59:27;;;;;;;15.10;9.90;;;;;;;1.71;64.81;96218.13;10274457;28;96848;-70
2022/03/03 01:04:30;;;;;;;22.40;12.60;;;;;;;1.84;64.71;96211.31;10280984;28;96878;-71
2022/03/03 01:09:34;;;;;;;19.48;11.23;;;;;;;1.93;64.30;96207.34;10282742;28;97709;-70
2022/03/03 01:14:37;;;;;;;15.73;10.25;;;;;;;2.02;64.17;96216.25;10283963;28;99257;-71
2022/03/03 01:19:40;;;;;;;15.40;9.35;;;;;;;2.03;63.85;96208.41;10280686;28;99285;-71
2022/03/03 01:24:45;;;;;;;17.67;9.98;;;;;;;2.06;64.05;96212.53;10278873;28;97140;-70
2022/03/03 01:29:48;;;;;;;18.50;11.50;;;;;;;2.07;64.73;96203.91;10280601;28;98602;-73
2022/03/03 01:34:50;;;;;;;25.80;14.20;;;;;;;2.14;64.14;96197.44;10282598;28;99235;-74
2022/03/03 01:39:55;;;;;;;22.60;12.68;;;;;;;2.17;63.73;96199.81;10275698;28;98990;-74
2022/03/03 01:44:57;;;;;;;17.90;10.10;;;;;;;2.13;64.22;96188.88;10281115;28;97845;-74
2022/03/03 01:50:02;;;;;;;14.82;9.45;;;;;;;2.11;63.73;96184.72;10275981;28;98360;-71
2022/03/03 01:55:07;;;;;;;16.60;10.32;;;;;;;2.17;64.21;96173.22;10281014;28;98420;-71
2022/03/03 02:00:12;;;;;;;15.35;9.73;;;;;;;2.15;65.14;96170.75;10280238;28;97655;-71
2022/03/03 02:05:15;;;;;;;15.23;9.80;;;;;;;2.17;65.27;96173.22;10280266;28;97791;-71
2022/03/03 02:10:20;;;;;;;14.90;9.80;;;;;;;2.16;65.05;96162.06;10278266;28;97799;-71
2022/03/03 02:15:23;;;;;;;16.77;10.60;;;;;;;2.17;64.66;96161.16;10280039;28;97057;-71
2022/03/03 02:20:29;;;;;;;15.73;10.27;;;;;;;2.17;65.20;96158.59;10278809;28;100551;-71
2022/03/03 02:25:32;;;;;;;17.73;10.20;;;;;;;2.22;65.66;96155.72;10275622;28;97875;-71
2022/03/03 02:30:34;;;;;;;15.25;9.00;;;;;;;2.11;66.07;96153.81;10279322;28;97652;-71
2022/03/03 02:35:39;;;;;;;16.88;10.13;;;;;;;2.12;65.82;96145.16;10278333;28;97053;-71
2022/03/03 02:40:42;;;;;;;20.15;12.38;;;;;;;2.06;66.61;96145.53;10274297;28;97066;-71
2022/03/03 02:45:45;;;;;;;13.82;9.57;;;;;;;2.15;66.83;96137.25;10278456;28;99240;-71
2022/03/03 02:50:49;;;;;;;16.17;9.07;;;;;;;2.29;65.73;96132.00;10277942;28;98273;-71
2022/03/03 02:55:52;;;;;;;14.35;9.07;;;;;;;2.45;65.53;96141.34;10277993;28;97745;-71
2022/03/03 03:00:56;;;;;;;16.05;10.05;;;;;;;2.43;65.62;96127.72;10279487;28;97758;-71
2022/03/03 03:06:00;;;;;;;16.63;10.13;;;;;;;2.42;66.14;96136.38;10275024;28;97019;-71
2022/03/03 03:11:03;;;;;;;16.42;9.55;;;;;;;2.46;66.50;96127.53;10278901;28;98782;-71
2022/03/03 03:16:08;;;;;;;12.73;8.60;;;;;;;2.50;65.78;96119.47;10272546;28;98864;-71
2022/03/03 03:21:13;;;;;;;16.13;8.97;;;;;;;2.58;64.97;96116.41;10277821;28;98743;-71
2022/03/03 03:26:15;;;;;;;12.95;8.55;;;;;;;2.59;65.22;96107.72;10272665;28;97811;-71
2022/03/03 03:31:19;;;;;;;13.60;9.18;;;;;;;2.65;65.43;96109.91;10277352;28;103102;-71
2022/03/03 03:36:23;;;;;;;14.10;8.50;;;;;;;2.68;65.14;96101.13;10271366;28;97085;-71
2022/03/03 03:41:26;;;;;;;13.18;8.75;;;;;;;2.73;65.46;96093.09;10263816;28;98410;-71
2022/03/03 03:46:29;;;;;;;14.35;9.30;;;;;;;2.73;64.86;96087.94;10273569;28;97721;-71
2022/03/03 03:51:33;;;;;;;14.55;8.85;;;;;;;2.72;65.56;96086.25;10277103;28;98232;-71
2022/03/03 03:56:36;;;;;;;15.43;8.82;;;;;;;2.72;65.07;96084.53;10277748;28;98339;-71
2022/03/03 04:01:39;;;;;;;14.00;9.10;;;;;;;2.77;64.95;96071.31;10277625;28;97793;-71
2022/03/03 04:06:43;;;;;;;12.38;8.70;;;;;;;2.83;64.86;96065.75;10273797;28;97194;-71
2022/03/03 04:11:46;;;;;;;13.30;8.68;;;;;;;2.89;64.78;96073.03;10272259;28;97468;-71
2022/03/03 04:16:49;;;;;;;14.90;9.40;;;;;;;2.87;64.99;96068.00;10270880;28;97494;-71
2022/03/03 04:21:53;;;;;;;14.00;9.32;;;;;;;2.82;65.20;96058.91;10284587;28;96748;-71
2022/03/03 04:26:56;;;;;;;16.15;9.30;;;;;;;2.85;65.52;96056.13;10257726;28;96881;-71
2022/03/03 04:31:59;;;;;;;14.90;9.88;;;;;;;2.78;66.54;96050.56;10273819;28;98437;-71
2022/03/03 04:37:04;;;;;;;15.02;9.35;;;;;;;2.71;66.57;96048.53;10272362;28;98633;-71
2022/03/03 04:42:07;;;;;;;15.18;9.13;;;;;;;2.73;66.72;96049.22;10276822;28;97585;-71
2022/03/03 04:47:10;;;;;;;14.40;9.35;;;;;;;2.76;66.75;96042.09;10276715;28;98745;-71
2022/03/03 04:52:15;;;;;;;15.68;10.48;;;;;;;2.79;66.49;96034.16;10283498;28;97948;-71
2022/03/03 04:57:18;;;;;;;18.70;11.05;;;;;;;2.64;67.43;96030.88;10290910;28;97025;-71
2022/03/03 05:02:21;;;;;;;13.63;9.00;;;;;;;2.69;67.29;96035.72;10278782;28;97614;-71
2022/03/03 05:07:25;;;;;;;13.88;8.35;;;;;;;2.83;66.58;96027.84;10278662;28;96831;-71
2022/03/03 05:12:29;;;;;;;13.50;9.47;;;;;;;2.94;66.92;96034.84;10274002;28;97840;-71
2022/03/03 05:17:32;;;;;;;12.50;9.07;;;;;;;2.97;66.38;96033.84;10279478;28;97388;-71
2022/03/03 05:22:36;;;;;;;17.20;9.48;;;;;;;2.81;67.10;96024.56;10282761;28;97763;-71
2022/03/03 05:27:39;;;;;;;15.20;9.80;;;;;;;2.75;67.75;96031.91;10280040;28;97900;-71
2022/03/03 05:32:43;;;;;;;13.02;9.43;;;;;;;2.80;67.00;96029.81;10277677;28;98676;-71
2022/03/03 05:37:48;;;;;;;15.43;10.18;;;;;;;2.84;67.51;96023.50;10285744;28;96930;-71
2022/03/03 05:42:53;;;;;;;13.73;9.25;;;;;;;2.77;68.09;96023.13;10280229;28;98221;-71
2022/03/03 05:47:56;;;;;;;14.93;8.98;;;;;;;2.81;67.62;96021.97;10280467;28;97866;-71
2022/03/03 05:53:01;;;;;;;16.90;9.52;;;;;;;2.82;68.22;96012.47;10284025;28;98754;-71
2022/03/03 05:58:09;;;;;;;16.63;9.68;;;;;;;2.75;68.55;96019.00;10280349;28;98531;-71
2022/03/03 06:03:14;;;;;;;15.27;9.98;;;;;;;2.78;68.14;96008.47;10285029;28;96972;-71
2022/03/03 06:08:23;;;;;;;17.63;9.60;;;;;;;2.86;67.55;96014.75;10287185;28;97071;-71
2022/03/03 06:13:28;;;;;;;15.88;9.88;;;;;;;2.87;67.84;96007.81;10274908;28;96794;-71
2022/03/03 06:18:32;;;;;;;18.43;11.20;;;;;;;2.93;67.94;96009.16;10282976;28;96958;-71
2022/03/03 06:23:36;;;;;;;16.17;9.73;;;;;;;2.99;67.87;96009.56;10285835;28;96901;-71
2022/03/03 06:28:39;;;;;;;14.93;9.75;;;;;;;3.03;67.30;96008.44;10279875;28;98586;-71
2022/03/03 06:33:43;;;;;;;15.50;8.90;;;;;;;3.03;67.57;96011.00;10280489;28;100650;-71
2022/03/03 06:38:47;;;;;;;15.65;9.57;;;;;;;3.15;67.81;96013.66;10274807;28;98463;-71
2022/03/03 06:43:50;;;;;;;16.67;10.55;;;;;;;3.13;68.08;96013.75;10272656;28;98542;-71
2022/03/03 06:48:53;;;;;;;20.35;10.50;;;;;;;3.12;68.88;96016.44;10277880;28;99278;-71
2022/03/03 06:54:02;;;;;;;19.85;11.43;;;;;;;3.17;68.78;96014.34;10276864;28;97662;-71
2022/03/03 06:59:05;;;;;;;16.02;10.70;;;;;;;3.31;67.97;96021.13;10273521;28;99163;-71
2022/03/03 07:04:09;;;;;;;15.68;10.18;;;;;;;3.49;67.94;96019.03;10276916;28;97683;-71
2022/03/03 07:09:14;;;;;;;18.48;10.93;;;;;;;3.64;67.16;96017.94;10272032;28;98959;-71
2022/03/03 07:14:18;;;;;;;18.98;11.20;;;;;;;3.79;66.81;96011.63;10273717;28;99367;-71
2022/03/03 07:19:35;;;;;;;23.75;13.95;;;;;;;3.92;66.71;96015.94;10274696;28;100767;-71
2022/03/03 07:24:44;;;;;;;33.38;18.42;;;;;;;3.93;66.64;96020.13;10274956;28;96886;-71
2022/03/03 07:29:51;;;;;;;35.05;20.25;;;;;;;3.94;66.82;96019.22;10269156;28;96794;-71
2022/03/03 07:35:00;;;;;;;32.50;20.90;;;;;;;4.03;67.00;96018.53;10273015;28;97269;-71
2022/03/03 07:40:07;;;;;;;35.60;21.45;;;;;;;4.12;66.53;96017.84;10269443;28;96932;-71
2022/03/03 07:45:10;;;;;;;34.38;20.90;;;;;;;4.24;66.15;96015.31;10270327;28;96854;-71
2022/03/03 07:50:13;;;;;;;35.10;22.20;;;;;;;4.27;65.90;96020.25;10279665;28;96888;-71
2022/03/03 07:55:22;;;;;;;35.33;22.08;;;;;;;4.33;65.83;96017.19;10288090;28;97159;-71
2022/03/03 08:00:26;;;;;;;32.90;20.30;;;;;;;4.33;66.03;96018.03;10281603;28;98491;-71
2022/03/03 08:05:30;;;;;;;31.97;20.37;;;;;;;4.36;65.62;96024.72;10268481;28;97872;-71
2022/03/03 08:10:37;;;;;;;35.30;21.10;;;;;;;4.36;65.29;96019.56;10268990;28;97276;-71
2022/03/03 08:15:40;;;;;;;32.10;20.25;;;;;;;4.39;65.68;96024.50;10295958;28;96946;-71
2022/03/03 08:20:44;;;;;;;32.50;20.63;;;;;;;4.51;64.90;96022.75;10298067;28;96911;-71
2022/03/03 08:25:48;;;;;;;31.88;19.63;;;;;;;4.60;65.09;96016.88;10293327;28;96827;-71
2022/03/03 08:30:56;;;;;;;32.55;19.73;;;;;;;4.65;64.52;96019.13;10294638;28;96766;-71
2022/03/03 08:36:02;;;;;;;31.02;19.45;;;;;;;4.73;64.15;96007.25;10288045;28;98532;-72
2022/03/03 08:41:07;;;;;;;30.55;18.55;;;;;;;4.79;63.81;96003.38;10281487;28;96907;-72
2022/03/03 08:46:10;;;;;;;30.23;19.08;;;;;;;4.84;64.24;96009.00;10276984;28;99137;-72
2022/03/03 08:51:19;;;;;;;33.20;20.58;;;;;;;4.92;63.40;96004.06;10286480;28;97493;-71
2022/03/03 08:56:23;;;;;;;36.40;21.88;;;;;;;5.03;63.77;96002.41;10282309;28;97673;-71
2022/03/03 09:01:26;;;;;;;38.27;20.57;;;;;;;5.08;63.69;95997.69;10294554;28;97334;-71
2022/03/03 09:06:31;;;;;;;35.08;20.50;;;;;;;5.15;63.30;96002.28;10291942;28;96833;-71
2022/03/03 09:11:35;;;;;;;33.43;19.73;;;;;;;5.25;63.11;96004.97;10295100;28;96877;-71
2022/03/03 09:16:38;;;;;;;39.85;22.90;;;;;;;5.36;62.70;96008.47;10283359;28;98700;-71
2022/03/03 09:21:41;;;;;;;33.65;21.70;;;;;;;5.50;62.76;96010.81;10288416;28;96960;-71
2022/03/03 09:26:46;;;;;;;33.95;21.50;;;;;;;5.66;62.51;96006.03;10289408;28;97097;-71
2022/03/03 09:31:49;;;;;;;35.85;22.58;;;;;;;5.77;62.26;95996.56;10285796;28;97085;-71
2022/03/03 09:36:52;;;;;;;40.90;23.73;;;;;;;5.87;62.23;95990.50;10269210;28;96765;-71
2022/03/03 09:41:56;;;;;;;40.88;24.25;;;;;;;5.99;62.11;95991.28;10267272;28;96793;-71
2022/03/03 09:47:00;;;;;;;40.67;24.67;;;;;;;6.09;62.04;95991.38;10284641;28;97032;-71
2022/03/03 09:52:11;;;;;;;37.97;23.60;;;;;;;6.12;61.82;95985.94;10271862;28;100069;-71
2022/03/03 09:57:17;;;;;;;36.38;23.65;;;;;;;6.19;61.85;95978.44;10262409;28;96836;-71
2022/03/03 10:02:20;;;;;;;38.63;24.85;;;;;;;6.29;61.43;95979.31;10278022;28;101251;-71
2022/03/03 10:07:25;;;;;;;39.80;23.67;;;;;;;6.43;61.07;95976.44;10231757;28;1236650;-70
2022/03/03 10:12:42;;;;;;;40.87;23.30;;;;;;;6.58;60.71;95976.06;10263045;28;98542;-72
2022/03/03 10:17:45;;;;;;;34.55;21.70;;;;;;;6.73;60.20;95961.81;10271558;28;97033;-72
2022/03/03 10:22:57;;;;;;;37.78;22.77;;;;;;;6.83;60.08;95960.06;10277210;28;98758;-71
2022/03/03 10:28:11;;;;;;;35.33;21.88;;;;;;;6.95;59.47;95967.75;10281820;28;96884;-71
2022/03/03 10:33:19;;;;;;;44.78;23.42;;;;;;;7.06;59.32;95954.69;10281728;28;98852;-71
2022/03/03 10:38:21;;;;;;;38.60;23.83;;;;;;;7.18;58.85;95948.44;10275946;28;99297;-71
2022/03/03 10:43:26;;;;;;;37.33;23.30;;;;;;;7.35;57.92;95954.75;10278805;28;97988;-71
2022/03/03 10:48:30;;;;;;;35.28;21.15;;;;;;;7.51;58.13;95942.97;10294565;28;98777;-71
2022/03/03 10:53:35;;;;;;;40.35;22.17;;;;;;;7.67;57.57;95926.88;10275239;28;97582;-71
2022/03/03 10:58:51;;;;;;;36.03;21.33;;;;;;;7.78;57.14;95924.91;10281375;28;96945;-71
2022/03/03 11:03:55;;;;;;;35.45;22.42;;;;;;;7.87;57.05;95918.06;10277452;28;98393;-71
2022/03/03 11:09:00;;;;;;;36.75;23.15;;;;;;;8.01;56.86;95916.00;10276813;28;96900;-71
2022/03/03 11:14:04;;;;;;;38.60;22.75;;;;;;;8.10;56.04;95904.75;10277503;28;97032;-71
2022/03/03 11:19:07;;;;;;;37.60;21.67;;;;;;;8.20;55.64;95897.75;10274067;28;96979;-71
2022/03/03 11:24:12;;;;;;;35.25;21.42;;;;;;;8.28;55.88;95890.06;10286304;28;97771;-71
2022/03/03 11:29:17;;;;;;;;;;;;;;;8.45;55.63;95890.28;10278384;28;97744;-71
2022/03/03 11:34:26;;;;;;;37.58;22.70;;;;;;;8.62;54.81;95884.31;10280546;28;99128;-71
2022/03/03 11:39:45;;;;;;;33.80;21.30;;;;;;;8.73;55.00;95873.69;10281390;28;98779;-71
2022/03/03 11:44:52;;;;;;;35.47;22.48;;;;;;;8.80;54.23;95870.53;10279064;28;96902;-70
2022/03/03 11:50:06;;;;;;;35.70;22.70;;;;;;;8.87;54.27;95858.56;10273736;28;98205;-71
2022/03/03 11:55:29;;;;;;;37.17;22.40;;;;;;;9.03;53.70;95842.25;10275692;28;97185;-71
2022/03/03 12:00:35;;;;;;;34.78;21.30;;;;;;;9.22;54.33;95836.91;10273259;28;99087;-73
2022/03/03 12:05:48;;;;;;;32.83;20.88;;;;;;;9.40;53.01;95829.09;10282532;28;97138;-71
2022/03/03 12:11:00;;;;;;;36.65;22.38;;;;;;;9.54;52.66;95816.50;10273811;28;97574;-71
2022/03/03 12:16:22;;;;;;;35.50;21.30;;;;;;;9.72;52.85;95814.69;10273129;28;96951;-71
2022/03/03 12:21:28;;;;;;;31.95;20.48;;;;;;;9.85;51.95;95803.81;10272500;28;97373;-71
2022/03/03 12:27:01;;;;;;;37.33;23.50;;;;;;;9.90;51.94;95798.16;10267823;28;96925;-71
2022/03/03 12:32:29;;;;;;;34.80;21.88;;;;;;;10.00;51.92;95786.63;10261976;28;96968;-71
2022/03/03 12:37:33;;;;;;;37.78;22.70;;;;;;;10.15;51.85;95776.44;10274541;28;97960;-71
2022/03/03 12:42:38;;;;;;;;;;;;;;;10.31;52.07;95780.09;10279037;28;98659;-71
2022/03/03 12:47:44;;;;;;;36.42;21.58;;;;;;;10.50;51.90;95768.56;10277407;28;98750;-71
2022/03/03 12:52:57;;;;;;;35.13;22.10;;;;;;;10.49;50.54;95767.75;10275307;28;98294;-71
2022/03/03 12:58:01;;;;;;;34.88;21.95;;;;;;;10.57;50.92;95749.50;10274664;28;97033;-71
2022/03/03 13:03:07;;;;;;;32.55;21.83;;;;;;;10.58;50.61;95745.91;10272962;28;98862;-72
2022/03/03 13:08:22;;;;;;;33.15;22.10;;;;;;;10.66;49.94;95741.69;10282440;28;97775;-71
2022/03/03 13:13:25;;;;;;;34.40;21.40;;;;;;;10.81;50.28;95734.84;10279330;28;98523;-71
2022/03/03 13:18:29;;;;;;;33.03;19.50;;;;;;;11.01;49.75;95729.31;10279250;28;98879;-71
2022/03/03 13:23:34;;;;;;;32.47;21.05;;;;;;;11.31;50.00;95722.59;10282944;28;97729;-71
2022/03/03 13:28:43;;;;;;;30.95;20.08;;;;;;;11.59;49.37;95722.25;10279548;28;98037;-72
2022/03/03 13:33:52;;;;;;;33.65;20.67;;;;;;;11.78;48.15;95715.84;10280206;28;97062;-72
2022/03/03 13:38:58;;;;;;;35.70;20.88;;;;;;;11.84;48.12;95712.56;10281756;28;98186;-72
2022/03/03 13:44:12;;;;;;;30.67;20.20;;;;;;;11.74;47.47;95708.34;10291205;28;105979;-72
2022/03/03 13:49:21;;;;;;;30.17;19.23;;;;;;;12.01;47.69;95705.47;10287873;28;97809;-72
2022/03/03 13:54:24;;;;;;;30.48;19.70;;;;;;;12.42;47.07;95706.09;10273650;28;97378;-72
2022/03/03 13:59:27;;;;;;;31.15;18.80;;;;;;;12.82;47.18;95693.72;10287642;28;99302;-72
2022/03/03 14:04:31;;;;;;;30.63;19.23;;;;;;;13.20;46.29;95691.16;10279692;28;96960;-72
2022/03/03 14:09:34;;;;;;;31.60;20.60;;;;;;;13.65;45.45;95693.81;10282139;28;97768;-72
2022/03/03 14:14:46;;;;;;;34.45;20.85;;;;;;;14.00;44.79;95686.22;10268947;28;97622;-71
2022/03/03 14:19:50;;;;;;;31.25;19.02;;;;;;;14.28;43.88;95689.00;10280240;28;96951;-72
2022/03/03 14:24:54;;;;;;;28.02;18.35;;;;;;;14.66;43.36;95683.59;10279917;28;97983;-72
2022/03/03 14:29:57;;;;;;;29.60;18.63;;;;;;;15.01;42.24;95678.47;10277049;28;97928;-72
2022/03/03 14:35:08;;;;;;;30.90;19.13;;;;;;;15.24;42.05;95674.78;10272746;28;97001;-73
2022/03/03 14:40:11;;;;;;;27.15;18.38;;;;;;;15.49;41.24;95680.44;10279267;28;97047;-72
2022/03/03 14:45:14;;;;;;;30.48;20.02;;;;;;;15.73;40.66;95667.88;10280595;28;96858;-72
2022/03/03 14:50:18;;;;;;;24.30;17.40;;;;;;;15.91;40.10;95662.88;10294240;28;97816;-72
2022/03/03 14:55:22;;;;;;;;;;;;;;;16.23;41.24;95665.88;10286647;28;97006;-72
2022/03/03 15:00:26;;;;;;;25.92;18.02;;;;;;;16.59;40.83;95667.41;10282519;28;97107;-72
2022/03/03 15:05:30;;;;;;;25.70;17.87;;;;;;;16.87;40.19;95662.00;10283731;28;96894;-72
2022/03/03 15:10:33;;;;;;;30.40;19.60;;;;;;;16.93;39.01;95658.53;10277971;28;97020;-72
2022/03/03 15:15:36;;;;;;;28.73;19.20;;;;;;;16.91;39.16;95652.66;10282896;28;97793;-72
2022/03/03 15:20:41;;;;;;;28.35;18.52;;;;;;;17.00;38.13;95655.91;10276302;28;98598;-72
2022/03/03 15:25:44;;;;;;;28.75;19.00;;;;;;;17.12;38.09;95656.13;10268751;28;97067;-73
2022/03/03 15:30:47;;;;;;;27.60;18.70;;;;;;;17.21;38.28;95662.03;10276165;28;97713;-72
2022/03/03 15:41:13;;;;;;;30.38;19.55;;;;;;;17.11;37.69;95651.84;10278338;28;97699;-72
2022/03/03 15:46:17;;;;;;;28.67;18.92;;;;;;;17.14;37.38;95654.09;10282602;28;97211;-72
2022/03/03 15:51:21;;;;;;;26.85;19.05;;;;;;;17.07;37.57;95650.66;10281496;28;96928;-72
2022/03/03 15:56:24;;;;;;;24.58;17.92;;;;;;;17.17;37.83;95645.78;10268815;28;96945;-73
2022/03/03 16:01:27;;;;;;;28.65;18.70;;;;;;;17.27;37.46;95650.66;10260071;28;96763;-72
2022/03/03 16:06:32;;;;;;;27.80;19.27;;;;;;;16.94;36.80;95643.56;10270055;28;96867;-72
2022/03/03 16:11:35;;;;;;;27.92;18.90;;;;;;;16.80;37.50;95651.44;10279849;28;98545;-72
2022/03/03 16:16:38;;;;;;;30.10;18.20;;;;;;;16.92;37.44;95651.66;10272906;28;96971;-72
2022/03/03 16:21:42;;;;;;;32.47;19.20;;;;;;;16.50;37.60;95648.31;10273560;28;97034;-72
2022/03/03 16:26:45;;;;;;;31.33;18.30;;;;;;;16.06;38.06;95654.84;10261584;28;96914;-73
2022/03/03 16:32:09;;;;;;;27.75;18.55;;;;;;;15.81;38.02;95652.72;10267357;28;97237;-72
2022/03/03 16:37:15;;;;;;;32.10;19.20;;;;;;;15.60;37.80;95650.97;10275427;28;97049;-72
2022/03/03 16:42:19;;;;;;;33.50;19.65;;;;;;;15.43;38.71;95660.97;10263442;28;97094;-72
2022/03/03 16:47:23;;;;;;;32.23;19.73;;;;;;;15.19;38.44;95661.41;10278369;28;96987;-72
2022/03/03 16:52:27;;;;;;;35.80;19.80;;;;;;;15.09;38.49;95654.63;10280800;28;97062;-72
2022/03/03 16:57:30;;;;;;;30.40;18.10;;;;;;;14.90;39.43;95655.28;10275959;28;96870;-72
2022/03/03 17:02:53;;;;;;;25.98;17.10;;;;;;;14.36;39.80;95654.75;10263713;28;96880;-72
2022/03/03 17:07:58;;;;;;;27.67;15.85;;;;;;;14.13;40.42;95664.56;10271565;28;97934;-72
2022/03/03 17:13:01;;;;;;;26.95;15.68;;;;;;;14.05;40.46;95672.53;10281382;28;98890;-72
2022/03/03 17:18:04;;;;;;;24.50;15.73;;;;;;;13.65;41.61;95672.84;10279983;28;96997;-72
2022/03/03 17:23:21;;;;;;;27.40;17.67;;;;;;;13.21;42.90;95666.53;10282816;28;101401;-72
2022/03/03 17:28:24;;;;;;;33.87;20.33;;;;;;;12.79;43.42;95665.22;10285997;28;96960;-72
2022/03/03 17:33:27;;;;;;;30.48;19.63;;;;;;;12.55;43.77;95660.97;10283422;28;97571;-72
2022/03/03 17:38:32;;;;;;;22.33;15.23;;;;;;;12.17;44.78;95662.69;10301564;28;98903;-72
2022/03/03 17:43:36;;;;;;;22.05;14.15;;;;;;;11.71;45.59;95665.97;10287616;28;97445;-71
2022/03/03 17:48:39;;;;;;;23.05;14.38;;;;;;;11.43;46.33;95682.06;10288507;28;97721;-72
2022/03/03 17:53:43;;;;;;;21.38;14.15;;;;;;;11.20;46.40;95683.72;10289637;28;97007;-71
2022/03/03 17:58:46;;;;;;;25.43;14.40;;;;;;;11.04;46.77;95685.34;10288764;28;96974;-71
2022/03/03 18:03:49;;;;;;;21.92;13.57;;;;;;;10.77;47.15;95686.50;10290015;28;96867;-72
2022/03/03 18:08:53;;;;;;;20.23;12.82;;;;;;;10.56;47.80;95689.56;10290179;28;96776;-72
2022/03/03 18:13:57;;;;;;;25.37;16.37;;;;;;;9.85;49.12;95697.69;10292466;28;100213;-72
2022/03/03 18:19:00;;;;;;;23.42;15.43;;;;;;;9.54;49.95;95691.34;10287221;28;99132;-72
2022/03/03 18:24:05;;;;;;;26.45;16.23;;;;;;;9.51;50.01;95699.50;10281556;28;100591;-72
2022/03/03 18:29:08;;;;;;;27.13;15.65;;;;;;;9.05;50.93;95700.44;10285662;28;98174;-72
2022/03/03 18:34:11;;;;;;;30.27;17.10;;;;;;;8.93;51.44;95701.66;10290652;28;98707;-72
2022/03/03 18:39:15;;;;;;;23.77;13.65;;;;;;;8.93;51.08;95706.84;10285619;28;97283;-73
2022/03/03 18:44:18;;;;;;;24.03;15.30;;;;;;;8.89;51.00;95700.31;10283008;28;98280;-72
2022/03/03 18:49:21;;;;;;;32.92;17.75;;;;;;;8.82;51.46;95696.69;10283091;28;98240;-72
2022/03/03 18:54:26;;;;;;;28.17;14.63;;;;;;;8.58;52.41;95705.91;10283533;28;97092;-72
2022/03/03 18:59:29;;;;;;;27.08;16.80;;;;;;;8.43;52.37;95697.81;10283564;28;96853;-72
2022/03/03 19:04:32;;;;;;;27.60;14.63;;;;;;;8.43;52.07;95704.78;10294997;28;99765;-72
2022/03/03 19:09:36;;;;;;;28.05;16.33;;;;;;;8.47;52.33;95704.34;10273545;28;97146;-72
2022/03/03 19:14:39;;;;;;;28.83;15.60;;;;;;;8.51;52.14;95707.47;10260854;28;97539;-71
2022/03/03 19:19:42;;;;;;;23.45;15.25;;;;;;;8.57;52.00;95721.66;10275887;28;97108;-72
2022/03/03 19:24:47;;;;;;;23.77;13.70;;;;;;;8.44;51.89;95716.84;10286862;28;99543;-72
2022/03/03 19:29:50;;;;;;;29.23;17.53;;;;;;;8.29;52.93;95714.75;10301003;28;96914;-72
2022/03/03 19:34:53;;;;;;;21.35;11.43;;;;;;;7.83;54.34;95719.06;10286360;28;97596;-72
2022/03/03 19:39:57;;;;;;;17.58;10.88;;;;;;;7.48;55.06;95712.78;10268114;28;96811;-72
2022/03/03 19:45:00;;;;;;;18.15;9.80;;;;;;;7.24;56.05;95712.44;10277479;28;97280;-72
2022/03/03 19:50:03;;;;;;;10.98;7.63;;;;;;;7.04;55.91;95712.44;10279553;28;97061;-72
2022/03/03 19:55:10;;;;;;;12.60;7.93;;;;;;;7.13;55.55;95705.63;10278572;28;97046;-72
2022/03/03 20:00:16;;;;;;;9.98;7.05;;;;;;;7.15;55.22;95698.50;10287190;28;97340;-72
2022/03/03 20:05:19;;;;;;;12.18;8.07;;;;;;;7.07;55.17;95706.97;10286432;28;97236;-72
2022/03/03 20:15:45;;;;;;;12.57;8.50;;;;;;;6.74;55.92;95696.03;10289025;28;96961;-72
2022/03/03 20:20:48;;;;;;;14.00;9.23;;;;;;;6.69;56.15;95706.00;10266332;28;96803;-72
2022/03/03 20:25:52;;;;;;;15.48;10.27;;;;;;;6.70;56.04;95704.25;10272853;28;96858;-71
2022/03/03 20:30:55;;;;;;;13.27;8.73;;;;;;;6.50;56.46;95716.41;10289810;28;97251;-72
2022/03/03 20:35:58;;;;;;;12.55;8.10;;;;;;;6.25;56.98;95718.56;10294177;28;97135;-72
2022/03/03 20:41:04;;;;;;;14.85;9.82;;;;;;;6.00;57.83;95723.28;10273642;28;97191;-72
2022/03/03 20:46:07;;;;;;;23.77;15.10;;;;;;;5.81;58.27;95708.47;10284482;28;97689;-72
2022/03/03 20:51:10;;;;;;;11.10;6.35;;;;;;;5.56;58.78;95722.69;10292641;28;97176;-73
2022/03/03 20:56:14;;;;;;;14.82;7.57;;;;;;;5.46;59.00;95724.41;10290954;28;96982;-72
2022/03/03 21:01:17;;;;;;;57.30;35.88;;;;;;;5.37;58.84;95727.78;10290651;28;101351;-72
2022/03/03 21:06:24;;;;;;;27.85;20.17;;;;;;;5.37;58.95;95735.56;10288197;28;97034;-73
2022/03/03 21:11:30;;;;;;;14.75;9.85;;;;;;;5.39;58.72;95744.00;10289160;28;96782;-72
2022/03/03 21:16:33;;;;;;;16.52;12.10;;;;;;;5.41;58.80;95736.94;10294495;28;97053;-72
2022/03/03 21:21:36;;;;;;;25.15;16.75;;;;;;;5.17;59.27;95743.22;10277847;28;97433;-72
2022/03/03 21:26:40;;;;;;;11.02;7.25;;;;;;;5.07;59.14;95737.16;10296662;28;96875;-72
2022/03/03 21:31:43;;;;;;;12.40;7.47;;;;;;;5.00;58.87;95749.78;10297171;28;96954;-72
2022/03/03 21:36:46;;;;;;;13.20;8.50;;;;;;;4.94;59.26;95748.50;10268710;28;96928;-72
2022/03/03 21:41:50;;;;;;;12.18;7.72;;;;;;;4.91;59.29;95756.53;10280105;28;96790;-72
2022/03/03 21:46:53;;;;;;;13.50;8.57;;;;;;;4.74;59.29;95759.66;10283734;28;97091;-72
2022/03/03 21:51:57;;;;;;;18.52;12.57;;;;;;;4.68;59.42;95760.13;10283070;28;97087;-72
2022/03/03 21:57:03;;;;;;;16.55;10.90;;;;;;;4.67;59.02;95761.09;10282000;28;97114;-72
2022/03/03 22:02:06;;;;;;;13.50;9.50;;;;;;;4.48;59.51;95762.56;10279091;28;100156;-71
2022/03/03 22:07:10;;;;;;;16.33;10.02;;;;;;;4.43;59.78;95751.75;10272990;28;96876;-72
2022/03/03 22:12:15;;;;;;;13.52;8.93;;;;;;;4.33;59.85;95756.00;10265149;28;97404;-72
2022/03/03 22:17:18;;;;;;;15.43;9.05;;;;;;;4.23;60.47;95760.25;10286839;28;97481;-72
2022/03/03 22:22:21;;;;;;;18.75;10.18;;;;;;;4.22;60.68;95749.09;10289806;28;97949;-72
2022/03/03 22:27:25;;;;;;;15.32;9.85;;;;;;;4.08;60.32;95757.94;10276902;28;96954;-72
2022/03/03 22:32:28;;;;;;;17.55;11.20;;;;;;;4.08;60.31;95763.09;10293017;28;97303;-72
2022/03/03 22:37:31;;;;;;;16.77;9.77;;;;;;;4.04;60.59;95756.53;10294828;28;96654;-71
2022/03/03 22:42:35;;;;;;;17.25;11.02;;;;;;;4.03;60.14;95759.25;10290194;28;99585;-72
2022/03/03 22:47:39;;;;;;;17.97;10.27;;;;;;;3.93;59.73;95753.94;10283021;28;98778;-72
2022/03/03 22:52:41;;;;;;;16.02;10.18;;;;;;;3.86;60.34;95763.13;10288535;28;96903;-72
2022/03/03 22:57:46;;;;;;;19.60;10.80;;;;;;;3.79;60.75;95758.41;10271504;28;97074;-72
2022/03/03 23:08:09;;;;;;;16.05;10.57;;;;;;;3.66;59.83;95760.31;10147576;28;99270;-72
2022/03/03 23:13:14;;;;;;;20.08;11.65;;;;;;;3.61;59.83;95752.09;10150188;28;96988;-72
2022/03/03 23:18:18;;;;;;;23.05;13.77;;;;;;;3.61;60.57;95762.41;10153200;28;97550;-72
2022/03/03 23:23:21;;;;;;;18.58;10.88;;;;;;;3.53;60.49;95760.41;10157955;28;97094;-72
2022/03/03 23:28:28;;;;;;;19.45;12.63;;;;;;;3.43;61.15;95756.88;10156807;28;97524;-72
2022/03/03 23:33:33;;;;;;;22.00;13.40;;;;;;;3.22;61.42;95749.81;10160360;28;97672;-72
2022/03/03 23:38:36;;;;;;;16.03;10.23;;;;;;;2.94;62.49;95756.19;10155739;28;98121;-72